Time;durP1;ratioP1;P1;durP2;ratioP2;P2;SDS_P1;SDS_P2;PMS_P1;PMS_P2;Temp;Humidity;BMP_temperature;BMP_pressure;BME280_temperature;BME280_humidity;BME280_pressure;Samples;Min_cycle;Max_cycle;Signal;HPM_P1;HPM_P2
2021/10/01 00:01:54;;;;;;;;;1.00;1.00;;;;;16.31;nan;101351.28;4857912;29;44926;-80
2021/10/01 00:04:20;;;;;;;;;2.67;1.67;;;;;16.31;nan;101356.66;4857013;29;45471;-80
2021/10/01 00:06:47;;;;;;;;;1.00;1.00;;;;;16.38;nan;101360.22;4840708;29;45585;-80
2021/10/01 00:09:12;;;;;;;;;2.00;1.67;;;;;16.21;nan;101354.88;4856947;29;45205;-80
2021/10/01 00:11:41;;;;;;;;;1.67;1.00;;;;;16.16;nan;101341.47;4858519;29;44786;-81
2021/10/01 00:14:06;;;;;;;;;2.67;2.00;;;;;16.23;nan;101352.19;4855851;29;48312;-80
2021/10/01 00:16:32;;;;;;;;;1.00;1.00;;;;;16.22;nan;101345.03;4871687;29;44835;-80
2021/10/01 00:18:57;;;;;;;;;2.00;2.00;;;;;16.15;nan;101339.66;4856581;29;45237;-80
2021/10/01 00:21:23;;;;;;;;;3.67;3.67;;;;;16.13;nan;101341.44;4858208;29;45503;-81
2021/10/01 00:23:48;;;;;;;;;1.00;1.00;;;;;16.15;nan;101350.38;4872290;29;47136;-80
2021/10/01 00:26:14;;;;;;;;;2.00;2.00;;;;;16.13;nan;101343.25;4857407;29;45435;-80
2021/10/01 00:28:39;;;;;;;;;1.00;1.00;;;;;16.13;nan;101340.56;4841587;29;45452;-80
2021/10/01 00:31:05;;;;;;;;;1.33;0.67;;;;;16.12;nan;101339.66;4858958;29;45543;-80
2021/10/01 00:33:30;;;;;;;;;0.00;0.00;;;;;16.09;nan;101342.34;4858718;29;45411;-79
2021/10/01 00:35:59;;;;;;;;;3.00;2.00;;;;;16.11;nan;101343.22;4857867;29;45307;-80
2021/10/01 00:38:25;;;;;;;;;1.67;1.00;;;;;16.08;nan;101342.31;4859075;29;45416;-81
2021/10/01 00:40:50;;;;;;;;;2.00;2.00;;;;;16.07;nan;101338.75;4861583;29;45413;-81
2021/10/01 00:43:16;;;;;;;;;2.00;1.33;;;;;16.04;nan;101338.75;4875633;29;46673;-81
2021/10/01 00:45:41;;;;;;;;;0.67;0.67;;;;;16.02;nan;101343.25;4845254;29;45368;-81
2021/10/01 00:48:06;;;;;;;;;1.00;1.00;;;;;15.96;nan;101332.50;4863908;29;44831;-81
2021/10/01 00:50:32;;;;;;;;;1.00;1.00;;;;;15.94;nan;101335.16;4847096;29;45837;-81
2021/10/01 00:52:58;;;;;;;;;0.00;0.00;;;;;15.92;nan;101331.59;4876954;29;47083;-80
2021/10/01 00:55:24;;;;;;;;;0.67;0.67;;;;;15.87;nan;101321.75;4845357;29;45436;-81
2021/10/01 00:57:50;;;;;;;;;1.33;1.33;;;;;15.85;nan;101324.41;4846029;29;45476;-81
2021/10/01 01:00:26;;;;;;;;;5.67;1.00;;;;;15.83;nan;101319.94;4862208;29;45106;-83
2021/10/01 01:02:52;;;;;;;;;1.00;1.00;;;;;15.84;nan;101311.03;4842686;29;46800;-83
2021/10/01 01:05:18;;;;;;;;;2.00;1.00;;;;;15.80;nan;101311.00;4873344;29;45878;-83
2021/10/01 01:07:53;;;;;;;;;1.00;1.00;;;;;15.94;nan;101307.47;4856460;29;45334;-82
2021/10/01 01:14:07;;;;;;;;;1.00;1.00;;;;;15.91;nan;101297.59;4858641;29;45019;-83
2021/10/01 01:16:35;;;;;;;;;2.67;1.67;;;;;15.79;nan;101298.50;4856795;29;45919;-83
2021/10/01 01:19:02;;;;;;;;;1.00;1.00;;;;;15.72;nan;101296.69;4856374;29;45500;-83
2021/10/01 01:21:46;;;;;;;;;1.00;1.00;;;;;15.96;nan;101294.94;4857228;29;45890;-82
2021/10/01 01:24:33;;;;;;;;;2.00;2.00;;;;;15.89;nan;101293.13;4822397;29;45476;-83
2021/10/01 01:27:27;;;;;;;;;0.00;0.00;;;;;15.92;nan;101293.16;4839923;29;45730;-83
2021/10/01 01:30:23;;;;;;;;;1.33;1.33;;;;;15.84;nan;101284.19;4838648;29;45439;-82
2021/10/01 01:32:52;;;;;;;;;1.00;1.00;;;;;15.64;nan;101286.81;4821959;29;45384;-84
2021/10/01 01:35:33;;;;;;;;;1.00;1.00;;;;;15.78;nan;101283.28;4839166;29;45610;-82
2021/10/01 01:38:06;;;;;;;;;1.00;1.00;;;;;15.73;nan;101277.00;4822484;29;45372;-83
2021/10/01 01:40:32;;;;;;;;;2.00;2.00;;;;;15.67;nan;101279.66;4836530;29;44801;-83
2021/10/01 01:43:01;;;;;;;;;0.67;0.67;;;;;15.76;nan;101278.81;4820933;29;45463;-82
2021/10/01 01:45:28;;;;;;;;;1.67;1.67;;;;;15.58;nan;101263.56;4836738;29;47248;-83
2021/10/01 01:47:55;;;;;;;;;2.00;1.00;;;;;15.51;nan;101265.34;4836111;29;45546;-83
2021/10/01 01:50:23;;;;;;;;;0.67;0.67;;;;;15.66;nan;101268.94;4837971;29;45476;-82
2021/10/01 01:52:51;;;;;;;;;1.33;1.00;;;;;15.66;nan;101251.06;4837720;29;45454;-83
2021/10/01 01:55:17;;;;;;;;;1.00;1.00;;;;;15.61;nan;101258.19;4835983;29;46774;-83
2021/10/01 01:57:53;;;;;;;;;1.00;1.00;;;;;15.73;nan;101247.50;4822281;29;44868;-83
2021/10/01 02:00:20;;;;;;;;;0.00;0.00;;;;;15.55;nan;101240.34;4838316;29;45580;-82
2021/10/01 02:02:50;;;;;;;;;1.33;1.33;;;;;15.68;nan;101229.63;4851915;29;45889;-82
2021/10/01 02:05:18;;;;;;;;;1.00;1.00;;;;;15.61;nan;101236.75;4840365;29;48325;-81
2021/10/01 02:07:45;;;;;;;;;1.00;1.00;;;;;15.54;nan;101233.16;4857678;29;45686;-82
2021/10/01 02:10:12;;;;;;;;;1.00;1.00;;;;;15.46;nan;101231.38;4858259;29;44820;-82
2021/10/01 02:12:39;;;;;;;;;2.00;1.00;;;;;15.46;nan;101220.66;4856887;29;45706;-82
2021/10/01 02:15:06;;;;;;;;;1.00;1.00;;;;;15.56;nan;101235.84;4857489;29;47343;-82
2021/10/01 02:17:37;;;;;;;;;1.00;1.00;;;;;15.67;nan;101226.00;4855972;29;45511;-83
2021/10/01 02:20:06;;;;;;;;;1.00;1.00;;;;;15.60;nan;101216.19;4855566;29;45974;-83
2021/10/01 02:22:33;;;;;;;;;3.33;2.00;;;;;15.52;nan;101221.53;4840178;29;44992;-82
2021/10/01 02:24:59;;;;;;;;;2.00;2.00;;;;;15.52;nan;101217.97;4857659;29;46460;-82
2021/10/01 02:27:45;;;;;;;;;3.67;1.00;;;;;15.79;nan;101210.00;4858460;29;45478;-83
2021/10/01 02:30:16;;;;;;;;;3.67;2.00;;;;;15.72;nan;101207.28;4858585;29;45441;-82
2021/10/01 02:32:50;;;;;;;;;2.33;1.00;;;;;15.73;nan;101204.59;4857872;29;45491;-82
2021/10/01 02:35:16;;;;;;;;;1.00;1.00;;;;;15.56;nan;101193.84;4855958;29;48141;-82
2021/10/01 02:37:42;;;;;;;;;2.00;2.00;;;;;15.54;nan;101192.94;4840287;29;45119;-82
2021/10/01 02:40:09;;;;;;;;;2.00;2.00;;;;;15.66;nan;101192.06;4858681;29;45813;-83
2021/10/01 02:42:36;;;;;;;;;2.00;2.00;;;;;15.51;nan;101179.56;4857411;29;45548;-82
2021/10/01 02:45:03;;;;;;;;;1.00;1.00;;;;;15.60;nan;101182.22;4843153;29;47230;-82
2021/10/01 02:47:32;;;;;;;;;1.00;1.00;;;;;15.60;nan;101192.06;4856135;29;45418;-82
2021/10/01 02:50:00;;;;;;;;;1.00;1.00;;;;;15.51;nan;101187.59;4857501;29;45381;-83
2021/10/01 02:52:50;;;;;;;;;2.00;2.00;;;;;15.57;nan;101179.56;4857572;29;44865;-82
2021/10/01 02:55:19;;;;;;;;;0.67;0.67;;;;;15.52;nan;101191.16;4858075;29;45382;-83
2021/10/01 02:57:54;;;;;;;;;1.67;1.67;;;;;15.44;nan;101187.59;4857402;29;45407;-83
2021/10/01 03:00:20;;;;;;;;;1.33;1.33;;;;;15.24;nan;101175.03;4856468;29;44941;-82
2021/10/01 03:02:49;;;;;;;;;1.00;1.00;;;;;15.39;nan;101180.44;4844380;29;45384;-82
2021/10/01 03:05:18;;;;;;;;;0.33;0.33;;;;;15.40;nan;101174.16;4863615;29;47056;-82
2021/10/01 03:07:45;;;;;;;;;1.67;1.67;;;;;15.33;nan;101166.13;4864291;29;44774;-81
2021/10/01 03:10:12;;;;;;;;;1.00;1.00;;;;;15.30;nan;101164.34;4863445;29;45380;-82
2021/10/01 03:12:40;;;;;;;;;1.00;1.00;;;;;15.38;nan;101167.03;4863592;29;44832;-82
2021/10/01 03:15:06;;;;;;;;;3.67;2.00;;;;;15.16;nan;101155.38;4864721;29;45207;-81
2021/10/01 03:17:33;;;;;;;;;1.00;1.00;;;;;15.23;nan;101156.28;4864800;29;45134;-82
2021/10/01 03:19:59;;;;;;;;;3.00;1.00;;;;;15.20;nan;101168.78;4863994;29;45359;-82
2021/10/01 03:22:31;;;;;;;;;3.00;1.00;;;;;15.15;nan;101157.19;4865824;29;45351;-82
2021/10/01 03:25:01;;;;;;;;;2.00;2.00;;;;;15.22;nan;101155.38;4864528;29;48320;-83
2021/10/01 03:27:28;;;;;;;;;1.00;1.00;;;;;15.19;nan;101144.69;4847259;29;45387;-81
2021/10/01 03:29:59;;;;;;;;;2.00;2.00;;;;;15.33;nan;101159.00;4862043;29;45392;-82
2021/10/01 03:32:25;;;;;;;;;2.00;2.00;;;;;15.15;nan;101146.47;4836832;29;45789;-83
2021/10/01 03:34:51;;;;;;;;;2.00;1.00;;;;;15.26;nan;101156.28;4855503;29;45698;-83
2021/10/01 03:37:16;;;;;;;;;5.00;3.67;;;;;15.29;nan;101154.53;4854672;29;45569;-83
2021/10/01 03:39:42;;;;;;;;;1.00;1.00;;;;;15.18;nan;101148.25;4855404;29;45559;-83
2021/10/01 03:42:07;;;;;;;;;1.00;1.00;;;;;15.14;nan;101135.72;4855671;29;45618;-83
2021/10/01 03:44:32;;;;;;;;;2.00;1.00;;;;;15.16;nan;101137.50;4856910;29;45323;-82
2021/10/01 03:46:58;;;;;;;;;1.00;1.00;;;;;15.15;nan;101133.06;4855159;29;45363;-83
2021/10/01 03:49:23;;;;;;;;;1.67;1.67;;;;;15.14;nan;101133.06;4855506;29;45450;-83
2021/10/01 03:51:49;;;;;;;;;2.67;1.00;;;;;15.08;nan;101125.91;4838874;29;45493;-82
2021/10/01 03:54:14;;;;;;;;;1.00;1.00;;;;;15.05;nan;101125.91;4855694;29;45393;-82
2021/10/01 03:56:40;;;;;;;;;1.00;1.00;;;;;15.07;nan;101118.75;4839280;29;44878;-83
2021/10/01 03:59:05;;;;;;;;;1.00;1.00;;;;;15.07;nan;101117.84;4855313;29;45449;-83
2021/10/01 04:01:31;;;;;;;;;1.00;1.00;;;;;15.03;nan;101114.28;4853914;29;45662;-83
2021/10/01 04:03:56;;;;;;;;;1.00;1.00;;;;;14.98;nan;101102.66;4853437;29;47888;-83
2021/10/01 04:06:21;;;;;;;;;1.00;1.00;;;;;15.02;nan;101106.25;4858809;29;45695;-83
2021/10/01 04:08:47;;;;;;;;;3.00;2.00;;;;;15.04;nan;101107.16;4868706;29;45928;-82
2021/10/01 04:11:13;;;;;;;;;2.00;2.00;;;;;15.03;nan;101106.25;4855380;29;45540;-83
2021/10/01 04:13:40;;;;;;;;;2.00;2.00;;;;;15.03;nan;101108.03;4853525;29;46351;-83
2021/10/01 04:16:06;;;;;;;;;2.00;2.00;;;;;15.16;nan;101104.47;4836959;29;45956;-82
2021/10/01 04:18:31;;;;;;;;;1.33;1.33;;;;;15.02;nan;101092.84;4836881;29;45407;-82
2021/10/01 04:20:57;;;;;;;;;2.00;1.00;;;;;15.04;nan;101101.78;4854000;29;45671;-83
2021/10/01 04:23:22;;;;;;;;;1.00;1.00;;;;;15.08;nan;101096.44;4853285;29;46934;-83
2021/10/01 04:25:48;;;;;;;;;2.00;2.00;;;;;15.13;nan;101110.72;4854626;29;45686;-83
2021/10/01 04:28:14;;;;;;;;;1.00;1.00;;;;;15.10;nan;101099.13;4853563;29;45430;-82
2021/10/01 04:30:49;;;;;;;;;1.00;1.00;;;;;15.09;nan;101108.03;4867579;29;45423;-82
2021/10/01 04:33:23;;;;;;;;;2.00;2.00;;;;;15.00;nan;101103.56;4854829;29;45411;-81
2021/10/01 04:35:49;;;;;;;;;1.00;1.00;;;;;15.06;nan;101103.56;4855064;29;44793;-82
2021/10/01 04:38:15;;;;;;;;;2.00;2.00;;;;;15.03;nan;101111.63;4838860;29;45588;-82
2021/10/01 04:40:41;;;;;;;;;2.33;2.33;;;;;14.97;nan;101100.91;4855152;29;45363;-82
2021/10/01 04:43:12;;;;;;;;;2.00;2.00;;;;;15.23;nan;101097.34;4854449;29;45984;-82
2021/10/01 04:45:38;;;;;;;;;2.33;1.33;;;;;15.00;nan;101092.84;4855018;29;45284;-82
2021/10/01 04:48:07;;;;;;;;;2.00;2.00;;;;;15.14;nan;101095.53;4836705;29;45482;-82
2021/10/01 04:50:34;;;;;;;;;3.33;2.00;;;;;15.04;nan;101101.78;4839208;29;45067;-83
2021/10/01 04:53:00;;;;;;;;;2.00;2.00;;;;;14.86;nan;101106.19;4838493;29;46963;-82
2021/10/01 04:55:26;;;;;;;;;3.00;2.00;;;;;14.82;nan;101096.38;4870673;29;45576;-82
2021/10/01 04:57:53;;;;;;;;;2.33;2.33;;;;;14.84;nan;101110.66;4853820;29;45455;-81
2021/10/01 05:00:20;;;;;;;;;2.00;2.00;;;;;14.78;nan;101105.28;4854531;29;45408;-83
2021/10/01 05:02:45;;;;;;;;;2.67;2.67;;;;;14.73;nan;101102.63;4852833;29;47074;-83
2021/10/01 05:05:10;;;;;;;;;3.67;3.00;;;;;14.67;nan;101105.28;4837127;29;45566;-82
2021/10/01 05:07:36;;;;;;;;;2.00;2.00;;;;;14.71;nan;101098.16;4838376;29;45756;-83
2021/10/01 05:10:04;;;;;;;;;3.33;3.00;;;;;14.78;nan;101100.84;4838129;29;45520;-83
2021/10/01 05:12:30;;;;;;;;;3.67;3.00;;;;;14.65;nan;101103.50;4855248;29;45317;-83
2021/10/01 05:14:56;;;;;;;;;2.67;2.00;;;;;14.67;nan;101101.72;4853853;29;45430;-83
2021/10/01 05:17:23;;;;;;;;;2.00;2.00;;;;;14.52;nan;101090.03;4837172;29;45567;-83
2021/10/01 05:19:49;;;;;;;;;3.00;3.00;;;;;14.54;nan;101101.66;4854115;29;45689;-82
2021/10/01 05:25:36;;;;;;;;;3.00;3.00;;;;;14.51;nan;101095.38;4857030;29;45608;-83
2021/10/01 05:28:02;;;;;;;;;3.67;3.00;;;;;14.49;nan;101084.66;4841129;29;45390;-83
2021/10/01 05:30:28;;;;;;;;;1.00;1.00;;;;;14.48;nan;101100.69;4856400;29;45513;-83
2021/10/01 05:32:53;;;;;;;;;4.00;2.67;;;;;14.48;nan;101092.69;4840588;29;47350;-83
2021/10/01 05:35:19;;;;;;;;;3.00;3.00;;;;;14.49;nan;101098.03;4858329;29;45405;-82
2021/10/01 05:37:45;;;;;;;;;2.00;2.00;;;;;14.51;nan;101084.66;4841087;29;45487;-83
2021/10/01 05:40:11;;;;;;;;;2.33;2.00;;;;;14.50;nan;101086.47;4842404;29;45503;-81
2021/10/01 05:42:37;;;;;;;;;2.00;2.00;;;;;14.48;nan;101088.25;4841169;29;46781;-84
2021/10/01 05:45:06;;;;;;;;;2.67;1.33;;;;;14.50;nan;101077.50;4856477;29;45638;-83
2021/10/01 05:47:32;;;;;;;;;3.00;3.00;;;;;14.50;nan;101073.09;4842207;29;45469;-83
2021/10/01 05:50:01;;;;;;;;;8.33;7.33;;;;;14.49;nan;101070.38;4858155;29;45751;-83
2021/10/01 05:54:59;;;;;;;;;3.00;2.00;;;;;14.55;nan;101063.25;4858270;29;45407;-83
2021/10/01 05:57:25;;;;;;;;;2.00;2.00;;;;;14.61;nan;101065.09;4857924;29;45483;-83
2021/10/01 05:59:52;;;;;;;;;2.33;2.33;;;;;14.58;nan;101063.31;4853177;29;45416;-83
2021/10/01 06:02:19;;;;;;;;;2.00;2.00;;;;;14.71;nan;101060.69;4839305;29;45432;-83
2021/10/01 06:04:45;;;;;;;;;2.67;2.00;;;;;14.75;nan;101067.81;4840330;29;44760;-84
2021/10/01 06:07:12;;;;;;;;;3.00;3.00;;;;;14.78;nan;101057.09;4824013;29;45459;-83
2021/10/01 06:09:43;;;;;;;;;3.00;1.00;;;;;14.81;nan;101059.81;4841966;29;44780;-83
2021/10/01 06:12:10;;;;;;;;;2.00;2.00;;;;;14.69;nan;101063.34;4838561;29;47706;-83
2021/10/01 06:14:36;;;;;;;;;2.33;2.33;;;;;14.64;nan;101058.84;4837738;29;45371;-83
2021/10/01 06:17:04;;;;;;;;;1.67;1.67;;;;;14.75;nan;101057.13;4822437;29;45543;-83
2021/10/01 06:19:32;;;;;;;;;1.00;1.00;;;;;14.74;nan;101061.53;4838882;29;45309;-85
2021/10/01 06:21:57;;;;;;;;;1.00;1.00;;;;;14.79;nan;101062.47;4837511;29;45874;-83
2021/10/01 06:24:23;;;;;;;;;5.00;4.67;;;;;14.85;nan;101058.03;4837762;29;45438;-84
2021/10/01 06:26:48;;;;;;;;;1.67;1.67;;;;;14.99;nan;101066.97;4840732;29;45363;-83
2021/10/01 06:29:15;;;;;;;;;1.67;1.67;;;;;15.13;nan;101069.66;4852757;29;45799;-83
2021/10/01 06:31:41;;;;;;;;;2.00;2.00;;;;;15.16;nan;101062.50;4838415;29;46993;-83
2021/10/01 06:34:06;;;;;;;;;0.67;0.67;;;;;15.27;nan;101050.88;4839708;29;45509;-83
2021/10/01 06:36:32;;;;;;;;;3.00;3.00;;;;;15.37;nan;101058.03;4823584;29;45394;-82
2021/10/01 06:38:57;;;;;;;;;2.00;2.00;;;;;15.45;nan;101055.34;4852907;29;45416;-84
2021/10/01 06:41:23;;;;;;;;;1.00;1.00;;;;;15.48;nan;101040.16;4853978;29;47176;-83
2021/10/01 06:43:59;;;;;;;;;2.67;2.00;;;;;15.69;nan;101052.63;4821800;29;45456;-83
2021/10/01 10:00:13;;;;;;;;;;;;;;;;;;;;;
2021/10/01 10:42:02;;;;;;;;;4.33;3.00;;;;;20.87;nan;100934.47;5057889;23;45741;-85
2021/10/01 10:49:51;;;;;;;;;;;;;;;;;;;;;
2021/10/01 10:59:36;;;;;;;;;3.67;3.67;;;;;21.13;nan;100916.69;4837204;29;45367;-87
2021/10/01 11:06:42;;;;;;;;;1.00;1.00;;;;;21.48;nan;100898.63;4824403;29;45022;-86
2021/10/01 11:10:07;;;;;;;;;4.67;1.33;;;;;21.87;nan;100909.19;4820345;29;45461;-86
2021/10/01 12:08:24;;;;;;;;;3.00;1.00;;;;;22.88;nan;100819.19;5446136;23;47162;-83
2021/10/01 12:18:20;;;;;;;;;;;;;;;;;;;;;
2021/10/01 12:53:03;;;;;;;;;;;;;;;;;;;;;
2021/10/01 14:40:20;;;;;;;;;2.00;2.00;;;;;20.60;nan;100737.91;4734464;29;45558;-85
2021/10/01 14:57:22;;;;;;;;;;;;;;;;;;;;;
2021/10/01 15:00:47;;;;;;;;;1.67;1.00;;;;;20.21;nan;100687.59;4649598;30;68787;-84
2021/10/01 16:27:11;;;;;;;;;2.00;2.00;;;;;19.11;nan;100707.31;1348992;27;46416;-83
2021/10/01 16:30:03;;;;;;;;;3.00;3.00;;;;;18.98;nan;100707.53;4852636;29;45818;-84
2021/10/01 16:32:31;;;;;;;;;2.33;2.33;;;;;18.57;nan;100674.25;4837954;29;47957;-83
2021/10/01 16:35:48;;;;;;;;;3.00;3.00;;;;;18.89;nan;100702.38;4855565;29;45470;-84
2021/10/01 16:39:19;;;;;;;;;;;;;;;;;;;;;
2021/10/01 16:44:54;;;;;;;;;3.00;3.00;;;;;18.48;nan;100650.19;4815461;29;45515;-84
2021/10/01 17:07:20;;;;;;;;;;;;;;;;;;;;;
2021/10/01 17:10:17;;;;;;;;;;;;;;;;;;;;;
2021/10/01 17:13:31;;;;;;;;;7.33;7.33;;;;;18.46;nan;100703.22;4760842;29;71337;-84
2021/10/01 17:16:16;;;;;;;;;12.33;10.67;;;;;18.14;nan;100664.31;4796973;29;45465;-84
2021/10/01 17:18:45;;;;;;;;;6.00;6.00;;;;;18.02;nan;100669.00;4783507;29;45740;-83
2021/10/01 17:22:08;;;;;;;;;7.00;7.00;;;;;18.22;nan;100676.72;4799349;29;46061;-84
2021/10/01 17:24:38;;;;;;;;;5.00;5.00;;;;;18.35;nan;100699.81;4795787;29;45543;-84
2021/10/01 17:27:33;;;;;;;;;7.00;5.33;;;;;18.15;nan;100666.06;4801552;29;45435;-84
2021/10/01 17:33:57;;;;;;;;;;;;;;;;;;;;;
2021/10/01 17:36:35;;;;;;;;;5.00;5.00;;;;;18.15;nan;100660.69;4807989;29;72011;-84
2021/10/01 17:39:13;;;;;;;;;3.33;3.00;;;;;18.34;nan;100715.09;4845991;29;45516;-84
2021/10/01 17:44:46;;;;;;;;;5.00;4.67;;;;;18.20;nan;100706.38;4836256;29;45610;-83
2021/10/01 17:47:39;;;;;;;;;8.33;4.00;;;;;17.67;nan;100674.03;4820174;29;44799;-83
2021/10/01 18:07:44;;;;;;;;;;;;;;;;;;;;;
2021/10/01 18:10:34;;;;;;;;;;;;;;;;;;;;;
2021/10/01 18:20:16;;;;;;;;;7.00;7.00;;;;;17.68;nan;100700.03;4799699;29;45412;-83
2021/10/01 18:23:10;;;;;;;;;6.67;5.00;;;;;17.70;nan;100698.19;4816451;29;46862;-83
2021/10/01 18:26:12;;;;;;;;;7.00;5.67;;;;;17.72;nan;100704.44;4797946;29;45691;-83
2021/10/01 18:28:47;;;;;;;;;7.67;6.33;;;;;17.57;nan;100707.38;4792769;29;45614;-83
2021/10/01 18:35:36;;;;;;;;;;;;;;;;;;;;;
2021/10/01 18:38:03;;;;;;;;;6.67;6.67;;;;;17.42;nan;100707.63;4777663;29;72491;-83
2021/10/01 18:40:33;;;;;;;;;4.00;4.00;;;;;17.33;nan;100679.97;4779182;29;45413;-83
2021/10/01 18:43:11;;;;;;;;;4.33;3.67;;;;;17.31;nan;100687.16;4763941;29;45553;-84
2021/10/01 18:45:48;;;;;;;;;5.00;5.00;;;;;17.56;nan;100732.50;4779871;29;47908;-83
2021/10/01 18:49:18;;;;;;;;;5.33;4.00;;;;;17.67;nan;100725.13;4764551;29;45384;-83
2021/10/01 18:59:09;;;;;;;;;;;;;;;;;;;;;
2021/10/01 19:02:34;;;;;;;;;7.33;6.33;;;;;17.52;nan;100687.75;4761034;29;74037;-83
2021/10/01 19:05:28;;;;;;;;;;;;;;;;;;;;;
2021/10/01 19:08:07;;;;;;;;;13.00;13.00;;;;;17.76;nan;100727.69;4690159;30;65100;-83
2021/10/01 19:10:48;;;;;;;;;8.33;6.00;;;;;17.54;nan;100688.59;4702654;30;46939;-83
2021/10/01 19:13:18;;;;;;;;;5.67;5.67;;;;;17.77;nan;100739.34;4708234;30;45506;-83
2021/10/01 19:16:42;;;;;;;;;5.67;5.67;;;;;17.87;nan;100732.94;4708849;30;45546;-83
2021/10/01 19:19:34;;;;;;;;;;;;;;;;;;;;;
2021/10/01 19:22:22;;;;;;;;;8.00;8.00;;;;;17.46;nan;100696.78;4707238;30;74402;-83
2021/10/01 19:33:02;;;;;;;;;;;;;;;;;;;;;
2021/10/01 19:35:37;;;;;;;;;10.67;10.67;;;;;17.66;nan;100684.84;4709774;30;74182;-83
2021/10/01 19:38:12;;;;;;;;;6.33;6.33;;;;;17.49;nan;100688.69;4694883;30;45428;-83
2021/10/01 19:41:09;;;;;;;;;5.67;5.67;;;;;17.92;nan;100723.00;4710661;29;45489;-83
2021/10/01 19:43:40;;;;;;;;;8.00;8.00;;;;;17.71;nan;100689.19;4765964;29;44886;-83
2021/10/01 19:46:06;;;;;;;;;7.67;7.00;;;;;17.54;nan;100677.84;4766376;29;45782;-84
2021/10/01 19:48:31;;;;;;;;;7.00;6.33;;;;;17.78;nan;100717.78;4781306;29;45534;-84
2021/10/01 19:51:21;;;;;;;;;6.00;6.00;;;;;17.97;nan;100704.06;4779543;29;44833;-84
2021/10/01 19:53:47;;;;;;;;;14.00;10.33;;;;;17.85;nan;100717.72;4801393;29;45459;-83
2021/10/01 19:56:18;;;;;;;;;6.00;5.33;;;;;17.62;nan;100697.44;4801409;29;45216;-83
2021/10/01 19:58:47;;;;;;;;;6.67;5.00;;;;;17.72;nan;100693.69;4801212;29;45497;-84
2021/10/01 20:05:12;;;;;;;;;3.67;3.67;;;;;17.90;nan;100718.56;4837809;29;45183;-83
2021/10/01 20:08:03;;;;;;;;;;;;;;;;;;;;;
2021/10/01 20:11:52;;;;;;;;;4.33;4.33;;;;;17.83;nan;100716.84;4884005;29;72024;-84
2021/10/01 20:14:43;;;;;;;;;;;;;;;;;;;;;
2021/10/01 20:22:05;;;;;;;;;5.67;5.67;;;;;17.55;nan;100664.38;4808781;29;45559;-83
2021/10/01 20:47:46;;;;;;;;;4.33;4.33;;;;;17.70;nan;100716.16;4782384;29;45494;-83
2021/10/01 20:50:16;;;;;;;;;5.00;5.00;;;;;17.69;nan;100730.50;4766564;29;45487;-83
2021/10/01 20:56:10;;;;;;;;;6.33;6.00;;;;;17.79;nan;100710.59;4860677;29;45540;-84
2021/10/01 20:59:31;;;;;;;;;6.00;6.00;;;;;17.83;nan;100703.38;4858859;29;45002;-84
2021/10/01 21:49:06;;;;;;;;;6.33;5.67;;;;;18.09;nan;100693.09;4877488;28;45474;-84
2021/10/01 21:54:29;;;;;;;;;5.00;5.00;;;;;18.00;nan;100714.78;4877730;29;45332;-82
2021/10/01 21:57:05;;;;;;;;;4.00;4.00;;;;;17.96;nan;100694.22;4868109;29;45501;-83
2021/10/01 21:59:45;;;;;;;;;4.33;4.33;;;;;18.08;nan;100702.09;4858415;29;44837;-84
2021/10/01 22:05:05;;;;;;;;;4.00;4.00;;;;;18.03;nan;100720.09;4843964;29;45417;-84
2021/10/01 22:11:41;;;;;;;;;4.00;3.00;;;;;18.01;nan;100702.22;4837771;29;45567;-84
2021/10/01 22:14:32;;;;;;;;;4.33;4.00;;;;;18.02;nan;100701.28;4837221;29;45312;-84
2021/10/01 22:20:22;;;;;;;;;9.67;6.67;;;;;18.27;nan;100723.28;4837806;29;44991;-83
2021/10/01 22:22:55;;;;;;;;;3.00;3.00;;;;;18.27;nan;100712.53;4836239;29;45567;-82
2021/10/01 22:25:22;;;;;;;;;4.67;4.67;;;;;17.92;nan;100673.69;4837652;29;45363;-82
2021/10/01 22:28:22;;;;;;;;;;;;;;;;;;;;;
2021/10/01 22:30:58;;;;;;;;;;;;;;;;;;;;;
2021/10/01 22:33:52;;;;;;;;;5.00;4.00;;;;;18.27;nan;100709.84;4837910;29;67915;-83
2021/10/01 22:36:21;;;;;;;;;5.00;5.00;;;;;18.14;nan;100696.59;4839903;29;45933;-83
2021/10/01 22:38:50;;;;;;;;;4.67;4.67;;;;;17.95;nan;100703.22;4838550;29;46862;-83
2021/10/01 22:41:35;;;;;;;;;4.00;4.00;;;;;17.97;nan;100671.78;4822905;29;45588;-83
2021/10/01 22:44:11;;;;;;;;;2.67;2.00;;;;;17.98;nan;100678.94;4837594;29;45816;-83
2021/10/01 22:46:59;;;;;;;;;4.00;3.00;;;;;17.80;nan;100664.84;4841513;29;44845;-83
2021/10/01 22:49:38;;;;;;;;;3.33;3.33;;;;;17.90;nan;100675.50;4856043;29;46736;-83
2021/10/01 22:52:23;;;;;;;;;3.00;3.00;;;;;17.95;nan;100677.19;4855628;29;45801;-83
2021/10/01 22:55:09;;;;;;;;;;;;;;;;;;;;;
2021/10/01 22:58:09;;;;;;;;;8.00;5.00;;;;;18.03;nan;100690.50;4859982;29;65025;-83
2021/10/01 23:01:10;;;;;;;;;4.67;4.67;;;;;18.10;nan;100710.16;4859734;29;45568;-84
2021/10/01 23:03:42;;;;;;;;;4.33;4.33;;;;;17.83;nan;100698.00;4857695;29;45597;-84
